createdAt,value
2022-08-20T00:01:11.884Z,22.00
2022-08-20T00:03:40.972Z,23.73
2022-08-20T00:06:15.909Z,28.27
2022-08-20T00:08:43.657Z,24.35
2022-08-20T00:11:13.245Z,22.10
2022-08-20T00:13:49.635Z,21.30
2022-08-20T00:16:18.840Z,26.88
2022-08-20T00:18:46.546Z,25.02
2022-08-20T00:21:18.768Z,22.52
2022-08-20T00:23:49.495Z,21.70
2022-08-20T00:26:17.842Z,20.80
2022-08-20T00:28:45.143Z,19.40
2022-08-20T00:31:20.802Z,26.67
2022-08-20T00:33:48.561Z,20.15
2022-08-20T00:36:17.808Z,17.50
2022-08-20T00:38:46.728Z,22.33
2022-08-20T00:41:20.419Z,22.42
2022-08-20T00:46:34.768Z,18.50
2022-08-20T00:49:03.999Z,16.52
2022-08-20T00:51:45.600Z,12.18
2022-08-20T00:54:15.580Z,17.95
2022-08-20T00:56:45.699Z,14.98
2022-08-20T00:59:16.772Z,14.75
2022-08-20T01:01:55.012Z,17.80
2022-08-20T01:04:25.233Z,13.25
2022-08-20T01:06:52.999Z,12.70
2022-08-20T01:09:33.327Z,14.82
2022-08-20T01:12:08.356Z,12.50
2022-08-20T01:14:35.763Z,18.05
2022-08-20T01:17:07.145Z,15.48
2022-08-20T01:19:41.515Z,14.05
2022-08-20T01:22:28.048Z,17.83
2022-08-20T01:25:23.914Z,15.57
2022-08-20T01:27:53.234Z,15.50
2022-08-20T01:30:26.985Z,16.17
2022-08-20T01:32:54.068Z,17.35
2022-08-20T01:35:22.677Z,13.10
2022-08-20T01:37:51.836Z,18.13
2022-08-20T01:40:29.767Z,18.55
2022-08-20T01:42:59.170Z,16.48
2022-08-20T01:45:30.803Z,20.88
2022-08-20T01:47:58.627Z,20.48
2022-08-20T01:50:29.148Z,12.52
2022-08-20T01:53:04.715Z,17.88
2022-08-20T01:55:33.113Z,23.48
2022-08-20T01:58:01.378Z,28.55
2022-08-20T02:00:28.847Z,25.23
2022-08-20T02:02:55.907Z,22.00
2022-08-20T02:05:23.213Z,26.40
2022-08-20T02:07:50.891Z,25.70
2022-08-20T02:10:19.307Z,25.60
2022-08-20T02:12:46.449Z,29.20
2022-08-20T02:15:13.991Z,18.85
2022-08-20T02:17:42.108Z,24.55
2022-08-20T02:20:13.691Z,26.00
2022-08-20T02:22:49.806Z,30.80
2022-08-20T02:25:18.941Z,30.73
2022-08-20T02:27:49.036Z,16.33
2022-08-20T02:30:28.307Z,26.40
2022-08-20T02:32:59.349Z,23.80
2022-08-20T02:35:27.125Z,24.25
2022-08-20T02:37:55.168Z,27.60
2022-08-20T02:40:27.306Z,30.35
2022-08-20T02:43:01.192Z,26.38
2022-08-20T02:45:30.421Z,19.48
2022-08-20T02:47:59.516Z,23.83
2022-08-20T02:50:27.802Z,31.02
2022-08-20T02:52:55.191Z,23.40
2022-08-20T02:55:27.985Z,31.02
2022-08-20T02:58:00.686Z,33.78
2022-08-20T03:00:37.828Z,32.67
2022-08-20T03:03:13.285Z,34.03
2022-08-20T03:05:42.909Z,36.17
2022-08-20T03:08:12.208Z,32.63
2022-08-20T03:10:40.380Z,28.02
2022-08-20T03:13:12.770Z,36.70
2022-08-20T03:15:42.654Z,34.88
2022-08-20T03:18:09.998Z,29.40
2022-08-20T03:20:37.203Z,17.33
2022-08-20T03:23:06.782Z,23.45
2022-08-20T03:25:33.958Z,26.73
2022-08-20T03:28:01.384Z,27.10
2022-08-20T03:30:31.470Z,20.42
2022-08-20T03:32:59.519Z,23.08
2022-08-20T03:35:28.897Z,18.77
2022-08-20T03:37:56.516Z,14.05
2022-08-20T03:40:28.059Z,14.77
2022-08-20T03:42:55.512Z,18.08
2022-08-20T03:45:24.922Z,19.33
2022-08-20T03:47:53.612Z,14.02
2022-08-20T03:50:25.270Z,9.13
2022-08-20T03:52:53.605Z,11.25
2022-08-20T03:55:23.108Z,18.05
2022-08-20T03:57:59.112Z,18.50
2022-08-20T04:00:34.077Z,12.70
2022-08-20T04:03:01.671Z,17.52
2022-08-20T04:05:31.405Z,25.88
2022-08-20T04:08:03.111Z,24.65
2022-08-20T04:10:31.351Z,19.73
2022-08-20T04:12:58.616Z,26.08
2022-08-20T04:15:26.794Z,26.55
2022-08-20T04:17:54.471Z,21.95
2022-08-20T04:20:26.232Z,22.63
2022-08-20T04:22:58.989Z,20.33
2022-08-20T04:25:35.931Z,26.88
2022-08-20T04:28:06.576Z,31.63
2022-08-20T04:30:34.600Z,24.65
2022-08-20T04:33:02.171Z,30.65
2022-08-20T04:35:30.429Z,32.63
2022-08-20T04:38:09.060Z,28.77
2022-08-20T04:40:55.890Z,21.65
2022-08-20T04:43:34.081Z,18.55
2022-08-20T04:46:09.953Z,22.38
2022-08-20T04:48:39.476Z,20.85
2022-08-20T04:51:09.346Z,17.27
2022-08-20T04:53:36.524Z,32.40
2022-08-20T04:56:04.025Z,25.65
2022-08-20T04:58:34.568Z,24.33
2022-08-20T05:01:05.805Z,20.77
2022-08-20T05:03:33.527Z,23.30
2022-08-20T05:06:02.131Z,21.73
2022-08-20T05:08:30.127Z,21.65
2022-08-20T05:11:24.968Z,26.63
2022-08-20T05:13:45.465Z,24.48
2022-08-20T05:16:13.567Z,25.67
2022-08-20T05:18:40.569Z,28.27
2022-08-20T05:21:07.704Z,29.88
2022-08-20T05:23:37.428Z,23.45
2022-08-20T05:26:09.415Z,22.80
2022-08-20T05:28:51.191Z,25.38
2022-08-20T05:31:31.734Z,17.63
2022-08-20T05:34:10.996Z,22.35
2022-08-20T05:36:46.950Z,22.65
2022-08-20T05:39:17.482Z,27.58
2022-08-20T05:41:44.482Z,30.80
2022-08-20T05:44:13.886Z,23.25
2022-08-20T05:46:43.070Z,21.02
2022-08-20T05:49:20.141Z,18.42
2022-08-20T05:51:48.243Z,26.10
2022-08-20T05:54:15.306Z,26.20
2022-08-20T05:56:42.385Z,22.38
2022-08-20T05:59:10.834Z,25.20
2022-08-20T06:01:39.541Z,27.55
2022-08-20T06:04:28.415Z,27.90
2022-08-20T06:07:08.632Z,23.00
2022-08-20T06:09:36.567Z,34.55
2022-08-20T06:12:06.781Z,25.42
2022-08-20T06:14:34.350Z,31.38
2022-08-20T06:17:10.642Z,30.88
2022-08-20T06:19:41.692Z,30.95
2022-08-20T06:22:19.042Z,27.63
2022-08-20T06:24:51.992Z,27.73
2022-08-20T06:27:19.823Z,24.98
2022-08-20T06:29:46.971Z,26.77
2022-08-20T06:32:14.683Z,21.45
2022-08-20T06:34:49.876Z,24.30
2022-08-20T06:37:21.169Z,24.40
2022-08-20T06:39:48.422Z,26.90
2022-08-20T06:42:20.768Z,24.38
2022-08-20T06:44:50.600Z,22.25
2022-08-20T06:47:20.047Z,30.25
2022-08-20T06:49:47.873Z,21.95
2022-08-20T06:52:18.215Z,30.20
2022-08-20T06:54:46.092Z,27.75
2022-08-20T06:57:13.188Z,20.10
2022-08-20T06:59:40.409Z,29.50
2022-08-20T07:02:08.206Z,29.38
2022-08-20T07:04:35.355Z,39.10
2022-08-20T07:07:02.455Z,24.40
2022-08-20T07:09:29.569Z,28.00
2022-08-20T07:11:56.936Z,28.98
2022-08-20T07:14:24.900Z,26.10
2022-08-20T07:16:51.905Z,35.10
2022-08-20T07:19:18.971Z,23.70
2022-08-20T07:21:47.944Z,25.05
2022-08-20T07:24:15.359Z,18.85
2022-08-20T07:26:42.474Z,25.52
2022-08-20T07:29:09.649Z,26.50
2022-08-20T07:31:55.269Z,30.98
2022-08-20T07:34:23.247Z,19.27
2022-08-20T07:36:50.605Z,19.92
2022-08-20T07:39:17.705Z,17.67
2022-08-20T07:42:03.225Z,16.35
2022-08-20T07:44:31.408Z,24.15
2022-08-20T07:47:01.703Z,28.52
2022-08-20T07:49:30.263Z,27.02
2022-08-20T07:51:57.422Z,18.80
2022-08-20T07:54:24.577Z,26.30
2022-08-20T07:56:51.648Z,24.55
2022-08-20T07:59:20.919Z,23.50
2022-08-20T08:01:48.087Z,24.58
2022-08-20T08:04:16.375Z,28.90
2022-08-20T08:06:45.518Z,21.67
2022-08-20T08:09:14.792Z,42.03
2022-08-20T08:11:47.735Z,35.92
2022-08-20T08:14:19.065Z,24.55
2022-08-20T08:16:46.426Z,24.92
2022-08-20T08:19:17.284Z,25.77
2022-08-20T08:21:45.096Z,29.98
2022-08-20T08:24:16.632Z,25.63
2022-08-20T08:26:50.372Z,26.73
2022-08-20T08:29:17.780Z,23.40
2022-08-20T08:31:45.037Z,23.15
2022-08-20T08:34:13.252Z,22.88
2022-08-20T08:36:40.878Z,24.60
2022-08-20T08:39:08.073Z,25.23
2022-08-20T08:41:48.788Z,21.13
2022-08-20T08:44:23.391Z,26.60
2022-08-20T08:46:57.876Z,24.45
2022-08-20T08:49:35.172Z,25.58
2022-08-20T08:52:30.172Z,21.60
2022-08-20T08:55:02.052Z,25.83
2022-08-20T08:57:29.345Z,21.02
2022-08-20T09:00:04.469Z,22.40
2022-08-20T09:02:34.130Z,23.52
2022-08-20T09:05:03.414Z,22.08
2022-08-20T09:07:33.749Z,22.35
2022-08-20T09:10:01.853Z,22.83
2022-08-20T09:12:28.965Z,24.00
2022-08-20T09:14:56.338Z,25.45
2022-08-20T09:17:24.101Z,27.00
2022-08-20T09:19:52.617Z,26.45
2022-08-20T09:22:23.250Z,23.10
2022-08-20T09:24:51.365Z,24.60
2022-08-20T09:27:18.552Z,20.45
2022-08-20T09:29:45.691Z,20.45
2022-08-20T09:32:21.840Z,19.17
2022-08-20T09:34:56.079Z,22.88
2022-08-20T09:37:25.397Z,19.38
2022-08-20T09:39:52.728Z,20.48
2022-08-20T09:42:33.232Z,21.42
2022-08-20T09:45:03.046Z,19.13
2022-08-20T09:47:30.572Z,25.58
2022-08-20T09:49:57.723Z,21.83
2022-08-20T09:52:38.970Z,17.70
2022-08-20T09:55:37.325Z,21.97
2022-08-20T09:58:22.463Z,26.13
2022-08-20T10:00:49.846Z,25.10
2022-08-20T10:03:17.252Z,22.35
2022-08-20T10:05:44.532Z,22.38
2022-08-20T10:08:12.612Z,19.30
2022-08-20T10:10:39.729Z,19.05
2022-08-20T10:13:06.912Z,21.55
2022-08-20T10:15:36.206Z,18.85
2022-08-20T10:18:05.826Z,18.70
2022-08-20T10:20:33.038Z,20.05
2022-08-20T10:23:00.299Z,18.27
2022-08-20T10:25:29.172Z,20.42
2022-08-20T10:27:56.760Z,19.08
2022-08-20T10:30:23.923Z,19.88
2022-08-20T10:32:50.978Z,20.73
2022-08-20T10:35:19.122Z,19.92
2022-08-20T10:37:46.253Z,19.30
2022-08-20T10:40:15.752Z,18.98
2022-08-20T10:42:44.337Z,20.38
2022-08-20T10:45:13.120Z,12.48
2022-08-20T10:47:40.867Z,21.35
2022-08-20T10:50:12.045Z,19.63
2022-08-20T10:52:39.268Z,23.90
2022-08-20T10:55:07.000Z,17.77
2022-08-20T10:57:34.406Z,13.32
2022-08-20T11:00:02.027Z,17.63
2022-08-20T11:02:30.209Z,20.08
2022-08-20T11:04:57.507Z,22.98
2022-08-20T11:07:54.808Z,25.52
2022-08-20T11:10:17.220Z,17.38
2022-08-20T11:12:46.292Z,23.10
2022-08-20T11:15:14.235Z,19.73
2022-08-20T11:17:43.609Z,19.92
2022-08-20T11:20:12.735Z,20.60
2022-08-20T11:22:39.791Z,19.77
2022-08-20T11:25:07.481Z,26.58
2022-08-20T11:27:39.380Z,21.02
2022-08-20T11:30:09.287Z,19.40
2022-08-20T11:32:36.736Z,26.88
2022-08-20T11:35:24.386Z,16.67
2022-08-20T11:37:52.974Z,21.02
2022-08-20T11:40:20.482Z,21.80
2022-08-20T11:43:13.039Z,16.45
2022-08-20T11:45:37.475Z,15.98
2022-08-20T11:48:05.426Z,18.70
2022-08-20T11:50:32.962Z,22.80
2022-08-20T11:53:01.018Z,19.67
2022-08-20T11:55:31.027Z,17.77
2022-08-20T11:58:00.486Z,17.13
2022-08-20T12:00:32.740Z,21.13
2022-08-20T12:03:05.628Z,17.65
2022-08-20T12:05:36.786Z,24.92
2022-08-20T12:08:04.497Z,20.58
2022-08-20T12:10:32.131Z,21.73
2022-08-20T12:12:59.583Z,16.80
2022-08-20T12:15:27.894Z,19.35
2022-08-20T12:17:56.039Z,20.45
2022-08-20T12:20:23.805Z,22.50
2022-08-20T12:22:51.011Z,17.02
2022-08-20T12:25:18.105Z,19.25
2022-08-20T12:27:46.618Z,20.52
2022-08-20T12:30:17.483Z,16.15
2022-08-20T12:32:45.046Z,20.90
2022-08-20T12:35:13.621Z,25.17
2022-08-20T12:37:41.707Z,22.80
2022-08-20T12:40:15.081Z,23.42
2022-08-20T12:42:42.525Z,15.52
2022-08-20T12:45:10.336Z,18.52
2022-08-20T12:47:45.054Z,23.17
2022-08-20T12:50:18.604Z,24.05
2022-08-20T12:52:46.022Z,23.38
2022-08-20T12:55:15.903Z,19.83
2022-08-20T12:57:50.253Z,21.73
2022-08-20T13:00:36.679Z,25.83
2022-08-20T13:03:06.520Z,18.65
2022-08-20T13:05:35.405Z,24.90
2022-08-20T13:08:03.503Z,19.35
2022-08-20T13:10:33.329Z,20.05
2022-08-20T13:13:04.746Z,25.50
2022-08-20T13:15:33.115Z,20.20
2022-08-20T13:18:02.715Z,18.85
2022-08-20T13:20:34.186Z,21.95
2022-08-20T13:23:04.499Z,16.13
2022-08-20T13:25:32.510Z,25.15
2022-08-20T13:28:01.752Z,18.73
2022-08-20T13:30:28.910Z,22.98
2022-08-20T13:32:56.213Z,26.55
2022-08-20T13:35:23.877Z,20.17
2022-08-20T13:37:51.135Z,25.05
2022-08-20T13:40:18.901Z,21.38
2022-08-20T13:42:46.315Z,20.58
2022-08-20T13:45:13.687Z,22.80
2022-08-20T13:47:42.383Z,19.90
2022-08-20T13:50:12.104Z,16.75
2022-08-20T13:52:40.041Z,24.02
2022-08-20T13:55:12.050Z,24.02
2022-08-20T13:57:39.329Z,24.80
2022-08-20T14:00:13.512Z,24.08
2022-08-20T14:02:42.120Z,24.08
2022-08-20T14:05:09.807Z,24.75
2022-08-20T14:07:37.722Z,20.13
2022-08-20T14:10:08.884Z,21.58
2022-08-20T14:12:35.976Z,22.52
2022-08-20T14:15:03.860Z,19.90
2022-08-20T14:17:34.329Z,22.00
2022-08-20T14:20:07.869Z,18.13
2022-08-20T14:25:05.706Z,19.33
2022-08-20T14:27:34.307Z,18.58
2022-08-20T14:30:02.867Z,25.70
2022-08-20T14:32:30.016Z,16.80
2022-08-20T14:34:59.533Z,22.20
2022-08-20T14:37:29.874Z,21.50
2022-08-20T14:39:58.575Z,19.23
2022-08-20T14:42:28.419Z,21.65
2022-08-20T14:44:57.336Z,17.67
2022-08-20T14:47:28.235Z,18.48
2022-08-20T14:49:58.154Z,19.23
2022-08-20T14:52:28.142Z,17.45
2022-08-20T14:54:55.620Z,30.80
2022-08-20T14:57:23.391Z,25.92
2022-08-20T14:59:53.433Z,21.05
2022-08-20T15:02:20.531Z,17.15
2022-08-20T15:04:53.938Z,14.35
2022-08-20T15:07:32.642Z,19.50
2022-08-20T15:10:01.978Z,22.63
2022-08-20T15:12:29.299Z,24.33
2022-08-20T15:14:56.355Z,26.85
2022-08-20T15:17:30.120Z,25.45
2022-08-20T15:19:58.032Z,27.30
2022-08-20T15:22:25.083Z,23.23
2022-08-20T15:24:55.653Z,17.02
2022-08-20T15:27:26.367Z,22.70
2022-08-20T15:29:54.441Z,22.20
2022-08-20T15:32:21.981Z,22.48
2022-08-20T15:34:49.790Z,20.40
2022-08-20T15:37:23.150Z,22.58
2022-08-20T15:39:51.586Z,19.38
2022-08-20T15:42:20.485Z,19.17
2022-08-20T15:44:47.903Z,33.10
2022-08-20T15:47:15.768Z,30.27
2022-08-20T15:49:44.322Z,28.02
2022-08-20T15:52:12.124Z,25.27
2022-08-20T15:54:40.099Z,25.13
2022-08-20T15:57:12.913Z,21.90
2022-08-20T15:59:49.063Z,17.95
2022-08-20T16:02:34.338Z,24.55
2022-08-20T16:05:23.700Z,24.65
2022-08-20T16:08:03.474Z,27.02
2022-08-20T16:11:04.546Z,25.90
2022-08-20T16:13:48.169Z,19.02
2022-08-20T16:16:22.244Z,25.55
2022-08-20T16:21:22.619Z,21.98
2022-08-20T16:23:50.043Z,23.20
2022-08-20T16:26:28.555Z,27.85
2022-08-20T16:29:24.766Z,25.75
2022-08-20T16:32:02.595Z,25.95
2022-08-20T16:34:35.531Z,27.20
2022-08-20T16:37:15.944Z,24.05
2022-08-20T16:39:54.015Z,19.85
2022-08-20T16:42:25.705Z,30.02
2022-08-20T16:44:55.033Z,23.23
2022-08-20T16:47:31.374Z,27.60
2022-08-20T16:50:02.871Z,22.70
2022-08-20T16:52:30.313Z,20.48
2022-08-20T16:54:57.674Z,20.33
2022-08-20T16:57:27.739Z,21.17
2022-08-20T16:59:59.942Z,19.83
2022-08-20T17:02:27.501Z,23.45
2022-08-20T17:04:59.145Z,25.25
2022-08-20T17:07:46.116Z,25.63
2022-08-20T17:10:20.539Z,25.63
2022-08-20T17:12:59.876Z,27.20
2022-08-20T17:15:33.520Z,24.23
2022-08-20T17:20:46.445Z,23.90
2022-08-20T17:23:18.439Z,25.77
2022-08-20T17:25:55.521Z,20.63
2022-08-20T17:28:23.564Z,23.23
2022-08-20T17:30:51.269Z,29.17
2022-08-20T17:33:28.076Z,21.25
2022-08-20T17:36:14.112Z,29.95
2022-08-20T17:38:47.752Z,20.05
2022-08-20T17:43:47.615Z,34.17
2022-08-20T17:46:17.972Z,26.00
2022-08-20T17:48:48.483Z,18.52
2022-08-20T17:51:19.355Z,25.02
2022-08-20T17:54:10.029Z,24.33
2022-08-20T17:56:40.303Z,21.92
2022-08-20T17:59:12.313Z,20.65
2022-08-20T18:01:39.407Z,20.63
2022-08-20T18:04:07.812Z,28.88
2022-08-20T18:06:44.692Z,23.85
2022-08-20T18:09:46.627Z,25.55
2022-08-20T18:12:40.854Z,20.00
2022-08-20T18:15:22.516Z,19.05
2022-08-20T18:18:12.323Z,20.77
2022-08-20T18:21:16.883Z,25.92
2022-08-20T18:23:55.823Z,27.50
2022-08-20T18:26:38.215Z,26.23
2022-08-20T18:29:15.076Z,26.25
2022-08-20T18:31:48.927Z,25.98
2022-08-20T18:34:43.689Z,26.52
2022-08-20T18:37:14.357Z,27.85
2022-08-20T18:39:47.569Z,20.75
2022-08-20T18:42:31.778Z,22.30
2022-08-20T18:44:59.689Z,28.98
2022-08-20T18:47:41.824Z,28.17
2022-08-20T18:50:22.569Z,24.30
2022-08-20T18:53:07.344Z,25.50
2022-08-20T18:55:43.091Z,22.30
2022-08-20T18:58:14.122Z,18.00
2022-08-20T19:00:45.442Z,22.45
2022-08-20T19:03:44.863Z,26.58
2022-08-20T19:06:41.834Z,20.23
2022-08-20T19:09:25.184Z,27.65
2022-08-20T19:12:14.476Z,25.10
2022-08-20T19:14:51.033Z,25.95
2022-08-20T19:18:02.998Z,33.35
2022-08-20T19:20:33.887Z,21.35
2022-08-20T19:23:07.294Z,27.30
2022-08-20T19:25:39.773Z,26.85
2022-08-20T19:28:29.257Z,24.45
2022-08-20T19:30:57.025Z,23.08
2022-08-20T19:33:32.729Z,24.05
2022-08-20T19:36:21.017Z,18.60
2022-08-20T19:38:57.981Z,19.77
2022-08-20T19:41:44.139Z,19.48
2022-08-20T19:44:11.785Z,25.83
2022-08-20T19:46:45.480Z,20.52
2022-08-20T19:49:35.355Z,25.73
2022-08-20T19:52:02.470Z,20.77
2022-08-20T19:54:30.727Z,22.23
2022-08-20T19:57:00.159Z,29.48
2022-08-20T19:59:27.674Z,36.85
2022-08-20T20:02:00.482Z,36.78
2022-08-20T20:04:40.010Z,21.63
2022-08-20T20:07:16.135Z,27.63
2022-08-20T20:09:43.367Z,23.80
2022-08-20T20:12:22.868Z,27.08
2022-08-20T20:14:52.569Z,22.83
2022-08-20T20:17:26.306Z,33.58
2022-08-20T20:19:59.639Z,23.73
2022-08-20T20:22:36.188Z,21.33
2022-08-20T20:25:24.734Z,29.00
2022-08-20T20:27:55.579Z,35.72
2022-08-20T20:30:32.881Z,28.17
2022-08-20T20:33:03.447Z,31.42
2022-08-20T20:35:33.842Z,30.42
2022-08-20T20:38:06.948Z,32.65
2022-08-20T20:40:44.890Z,28.83
2022-08-20T20:43:22.921Z,32.70
2022-08-20T20:46:17.315Z,24.13
2022-08-20T20:48:46.480Z,29.00
2022-08-20T20:51:16.572Z,26.67
2022-08-20T20:53:54.404Z,26.27
2022-08-20T20:56:43.011Z,27.50
2022-08-20T20:59:10.830Z,26.52
2022-08-20T21:01:50.199Z,27.23
2022-08-20T21:04:22.562Z,32.30
2022-08-20T21:06:51.912Z,33.53
2022-08-20T21:09:19.477Z,32.22
2022-08-20T21:11:46.966Z,32.00
2022-08-20T21:14:14.311Z,31.30
2022-08-20T21:16:41.615Z,35.72
2022-08-20T21:19:10.350Z,28.00
2022-08-20T21:21:39.110Z,31.65
2022-08-20T21:24:06.751Z,24.48
2022-08-20T21:26:34.396Z,25.77
2022-08-20T21:29:01.627Z,34.80
2022-08-20T21:31:34.134Z,31.25
2022-08-20T21:34:01.861Z,29.30
2022-08-20T21:36:29.383Z,30.00
2022-08-20T21:38:56.634Z,38.63
2022-08-20T21:41:29.584Z,31.35
2022-08-20T21:46:25.440Z,30.95
2022-08-20T21:48:52.493Z,37.95
2022-08-20T21:51:19.606Z,33.97
2022-08-20T21:53:47.293Z,28.55
2022-08-20T21:56:14.344Z,38.63
2022-08-20T21:58:41.417Z,25.67
2022-08-20T22:01:08.761Z,32.97
2022-08-20T22:03:40.961Z,33.35
2022-08-20T22:06:10.908Z,40.97
2022-08-20T22:08:38.609Z,48.50
2022-08-20T22:11:08.508Z,52.75
2022-08-20T22:13:36.357Z,57.28
2022-08-20T22:16:07.713Z,49.63
2022-08-20T22:18:35.749Z,63.22
2022-08-20T22:21:03.734Z,42.97
2022-08-20T22:23:30.871Z,46.72
2022-08-20T22:25:57.883Z,44.67
2022-08-20T22:28:25.253Z,34.22
2022-08-20T22:30:53.059Z,33.97
2022-08-20T22:33:24.059Z,45.15
2022-08-20T22:35:56.917Z,41.17
2022-08-20T22:38:25.143Z,35.72
2022-08-20T22:40:54.212Z,37.90
2022-08-20T22:43:22.192Z,37.40
2022-08-20T22:45:52.671Z,31.73
2022-08-20T22:48:20.988Z,39.30
2022-08-20T22:50:50.100Z,42.17
2022-08-20T22:53:19.616Z,40.50
2022-08-20T22:55:47.285Z,41.55
2022-08-20T22:58:15.010Z,30.85
2022-08-20T23:00:45.406Z,34.85
2022-08-20T23:03:14.241Z,35.10
2022-08-20T23:05:42.610Z,35.15
2022-08-20T23:08:11.864Z,29.95
2022-08-20T23:10:39.589Z,25.63
2022-08-20T23:13:07.410Z,35.05
2022-08-20T23:15:45.175Z,30.20
2022-08-20T23:18:16.171Z,29.60
2022-08-20T23:20:49.268Z,29.65
2022-08-20T23:23:16.706Z,23.20
2022-08-20T23:25:43.752Z,18.33
2022-08-20T23:28:11.002Z,23.27
2022-08-20T23:30:38.020Z,26.50
2022-08-20T23:33:05.130Z,21.48
2022-08-20T23:35:33.289Z,19.48
2022-08-20T23:38:00.484Z,21.85
2022-08-20T23:40:28.575Z,26.00
2022-08-20T23:42:56.319Z,23.83
2022-08-20T23:45:23.705Z,22.33
2022-08-20T23:47:51.421Z,26.95
2022-08-20T23:50:21.441Z,29.23
2022-08-20T23:52:52.052Z,18.73
2022-08-20T23:55:21.132Z,24.40
2022-08-20T23:57:48.214Z,32.35
